createdAt,value
2019-03-31T00:03:28.925Z,101128.12
2019-03-31T00:08:35.203Z,101134.50
2019-03-31T00:13:41.741Z,101130.61
2019-03-31T00:18:47.399Z,101132.97
2019-03-31T00:23:53.229Z,101122.09
2019-03-31T00:28:58.989Z,101132.49
2019-03-31T00:34:05.091Z,101132.21
2019-03-31T00:39:13.101Z,101135.05
2019-03-31T00:44:18.848Z,101136.03
2019-03-31T00:49:27.213Z,101127.70
2019-03-31T00:54:34.615Z,101135.98
2019-03-31T00:59:41.320Z,101142.09
2019-03-31T01:04:47.432Z,101147.67
2019-03-31T01:09:57.163Z,101143.11
2019-03-31T01:15:07.455Z,101147.50
2019-03-31T01:20:13.728Z,101155.36
2019-03-31T01:25:20.033Z,101160.63
2019-03-31T01:30:26.094Z,101163.83
2019-03-31T01:35:32.977Z,101162.25
2019-03-31T01:40:38.629Z,101171.21
2019-03-31T01:45:44.622Z,101177.95
2019-03-31T01:50:50.924Z,101177.44
2019-03-31T01:55:56.544Z,101178.61
2019-03-31T02:01:04.510Z,101181.48
2019-03-31T02:06:10.364Z,101176.30
2019-03-31T02:11:16.187Z,101184.83
2019-03-31T02:16:22.638Z,101184.02
2019-03-31T02:21:28.276Z,101189.59
2019-03-31T02:26:34.489Z,101180.17
2019-03-31T02:31:40.074Z,101183.28
2019-03-31T02:36:45.801Z,101184.17
2019-03-31T02:41:51.421Z,101181.80
2019-03-31T02:46:57.507Z,101181.06
2019-03-31T02:52:03.083Z,101187.52
2019-03-31T02:57:09.295Z,101193.51
2019-03-31T03:02:15.044Z,101192.84
2019-03-31T03:07:22.970Z,101194.46
2019-03-31T03:12:32.144Z,101196.14
2019-03-31T03:17:37.918Z,101202.40
2019-03-31T03:22:44.194Z,101200.48
2019-03-31T03:27:51.351Z,101215.73
2019-03-31T03:33:14.515Z,101214.66
2019-03-31T03:38:04.945Z,101220.81
2019-03-31T03:43:12.163Z,101214.31
2019-03-31T03:48:18.320Z,101216.72
2019-03-31T03:53:24.261Z,101230.59
2019-03-31T03:58:29.834Z,101230.51
2019-03-31T04:03:35.500Z,101235.28
2019-03-31T04:08:42.703Z,101239.20
2019-03-31T04:13:48.669Z,101242.11
2019-03-31T04:18:54.380Z,101251.53
2019-03-31T04:24:00.399Z,101256.11
2019-03-31T04:29:06.281Z,101263.59
2019-03-31T04:34:12.207Z,101261.58
2019-03-31T04:39:17.883Z,101263.92
2019-03-31T04:44:24.455Z,101270.20
2019-03-31T04:49:30.496Z,101275.20
2019-03-31T04:54:36.089Z,101277.83
2019-03-31T04:59:42.145Z,101297.46
2019-03-31T05:04:47.871Z,101307.66
2019-03-31T05:09:53.667Z,101305.05
2019-03-31T05:14:59.237Z,101316.04
2019-03-31T05:20:07.302Z,101338.69
2019-03-31T05:25:13.101Z,101346.14
2019-03-31T05:30:39.335Z,101370.66
2019-03-31T05:35:44.917Z,101379.69
2019-03-31T05:40:51.195Z,101381.28
2019-03-31T05:45:57.827Z,101411.47
2019-03-31T05:51:03.745Z,101416.73
2019-03-31T05:56:09.984Z,101429.20
2019-03-31T06:01:16.196Z,101434.68
2019-03-31T06:06:22.443Z,101440.55
2019-03-31T06:11:28.870Z,101444.13
2019-03-31T06:16:36.134Z,101443.33
2019-03-31T06:21:41.896Z,101447.02
2019-03-31T06:26:49.040Z,101461.02
2019-03-31T06:31:55.097Z,101461.75
2019-03-31T06:37:00.678Z,101467.06
2019-03-31T06:42:06.541Z,101473.48
2019-03-31T06:47:12.401Z,101480.56
2019-03-31T06:52:18.335Z,101489.98
2019-03-31T06:57:24.127Z,101488.32
2019-03-31T07:02:29.700Z,101492.56
2019-03-31T07:07:35.513Z,101498.67
2019-03-31T07:12:42.727Z,101496.88
2019-03-31T07:17:48.916Z,101498.55
2019-03-31T07:22:55.341Z,101501.55
2019-03-31T07:28:01.054Z,101510.67
2019-03-31T07:33:06.993Z,101519.73
2019-03-31T07:38:13.291Z,101523.96
2019-03-31T07:43:21.173Z,101531.74
2019-03-31T07:48:27.090Z,101537.39
2019-03-31T07:53:33.031Z,101548.98
2019-03-31T07:58:39.168Z,101552.67
2019-03-31T08:03:44.898Z,101564.25
2019-03-31T08:08:53.423Z,101567.39
2019-03-31T08:13:58.504Z,101574.58
2019-03-31T08:19:04.181Z,101573.47
2019-03-31T08:24:09.808Z,101590.44
2019-03-31T08:29:15.394Z,101584.61
2019-03-31T08:34:21.129Z,101590.22
2019-03-31T08:39:27.330Z,101599.25
2019-03-31T08:44:34.654Z,101599.37
2019-03-31T08:49:40.367Z,101606.42
2019-03-31T08:54:46.755Z,101607.72
2019-03-31T08:59:52.328Z,101619.26
2019-03-31T09:04:58.175Z,101619.53
2019-03-31T09:10:09.264Z,101630.12
2019-03-31T09:15:15.432Z,101632.72
2019-03-31T09:20:21.592Z,101638.09
2019-03-31T09:25:30.485Z,101632.23
2019-03-31T09:30:36.171Z,101624.93
2019-03-31T09:35:41.814Z,101645.96
2019-03-31T09:40:47.517Z,101658.67
2019-03-31T09:45:53.656Z,101669.25
2019-03-31T09:50:59.561Z,101666.67
2019-03-31T09:56:05.231Z,101674.80
2019-03-31T10:01:11.177Z,101674.08
2019-03-31T10:06:29.653Z,101671.25
2019-03-31T10:11:25.157Z,101673.28
2019-03-31T10:16:32.025Z,101669.52
2019-03-31T10:21:37.908Z,101674.88
2019-03-31T10:26:45.906Z,101675.08
2019-03-31T10:31:51.774Z,101673.84
2019-03-31T10:36:58.009Z,101676.30
2019-03-31T10:42:04.374Z,101670.94
2019-03-31T10:47:10.864Z,101672.73
2019-03-31T10:52:16.875Z,101671.14
2019-03-31T10:57:22.592Z,101670.52
2019-03-31T11:02:28.736Z,101680.13
2019-03-31T11:07:34.493Z,101668.90
2019-03-31T11:12:40.374Z,101671.40
2019-03-31T11:17:46.542Z,101666.35
2019-03-31T11:23:02.743Z,101675.54
2019-03-31T11:28:08.526Z,101679.28
2019-03-31T11:33:15.856Z,101681.27
2019-03-31T11:38:21.677Z,101681.32
2019-03-31T11:43:29.174Z,101677.55
2019-03-31T11:48:34.973Z,101671.88
2019-03-31T11:53:41.408Z,101680.03
2019-03-31T11:58:48.393Z,101678.40
2019-03-31T12:03:55.230Z,101684.01
2019-03-31T12:09:00.812Z,101683.84
2019-03-31T12:14:08.673Z,101682.02
2019-03-31T12:19:14.310Z,101674.88
2019-03-31T12:24:20.140Z,101685.11
2019-03-31T12:29:26.379Z,101686.34
2019-03-31T12:34:34.923Z,101691.94
2019-03-31T12:39:41.048Z,101695.70
2019-03-31T12:44:47.130Z,101682.23
2019-03-31T12:49:52.840Z,101678.08
2019-03-31T12:54:59.215Z,101673.88
2019-03-31T13:00:07.204Z,101686.86
2019-03-31T13:05:12.931Z,101678.86
2019-03-31T13:10:19.049Z,101679.98
2019-03-31T13:15:25.139Z,101686.89
2019-03-31T13:20:32.229Z,101679.22
2019-03-31T13:25:38.260Z,101685.96
2019-03-31T13:30:44.473Z,101683.27
2019-03-31T13:35:53.387Z,101676.50
2019-03-31T13:40:59.000Z,101681.92
2019-03-31T13:46:06.617Z,101678.47
2019-03-31T13:51:13.071Z,101668.09
2019-03-31T13:56:21.295Z,101673.11
2019-03-31T14:01:27.377Z,101668.44
2019-03-31T14:06:33.215Z,101688.19
2019-03-31T14:11:40.356Z,101676.12
2019-03-31T14:16:47.055Z,101666.83
2019-03-31T14:21:53.448Z,101670.42
2019-03-31T14:27:00.242Z,101678.00
2019-03-31T14:32:05.816Z,101675.86
2019-03-31T14:37:11.894Z,101671.92
2019-03-31T14:42:18.272Z,101680.19
2019-03-31T14:47:25.563Z,101674.98
2019-03-31T14:52:31.778Z,101672.11
2019-03-31T14:57:38.438Z,101672.97
2019-03-31T15:02:44.858Z,101671.04
2019-03-31T15:07:53.224Z,101694.47
2019-03-31T15:12:59.281Z,101679.69
2019-03-31T15:18:05.572Z,101684.67
2019-03-31T15:23:11.562Z,101696.50
2019-03-31T15:28:18.450Z,101690.28
2019-03-31T15:33:24.442Z,101694.60
2019-03-31T15:38:30.526Z,101703.97
2019-03-31T15:43:36.333Z,101702.45
2019-03-31T15:48:43.019Z,101703.25
2019-03-31T15:53:49.898Z,101709.54
2019-03-31T15:58:56.032Z,101718.03
2019-03-31T16:04:02.476Z,101716.11
2019-03-31T16:09:22.332Z,101717.09
2019-03-31T16:14:16.659Z,101724.92
2019-03-31T16:19:22.910Z,101722.19
2019-03-31T16:24:42.504Z,101735.17
2019-03-31T16:29:49.531Z,101727.08
2019-03-31T16:34:55.671Z,101725.69
2019-03-31T16:40:02.148Z,101730.66
2019-03-31T16:45:10.049Z,101730.95
2019-03-31T16:50:18.462Z,101736.19
2019-03-31T16:55:24.311Z,101737.92
2019-03-31T17:00:32.604Z,101734.62
2019-03-31T17:05:38.558Z,101739.91
2019-03-31T17:10:45.330Z,101739.38
2019-03-31T17:15:52.914Z,101751.13
2019-03-31T17:20:58.806Z,101755.07
2019-03-31T17:26:07.543Z,101760.64
2019-03-31T17:31:14.073Z,101763.89
2019-03-31T17:36:21.683Z,101769.29
2019-03-31T17:41:30.582Z,101776.98
2019-03-31T17:46:36.529Z,101783.34
2019-03-31T17:51:42.844Z,101785.44
2019-03-31T17:56:48.466Z,101791.05
2019-03-31T18:01:56.154Z,101793.73
2019-03-31T18:07:03.174Z,101804.78
2019-03-31T18:12:10.021Z,101810.88
2019-03-31T18:17:16.704Z,101813.50
2019-03-31T18:22:31.374Z,101821.64
2019-03-31T18:27:39.152Z,101823.34
2019-03-31T18:32:51.140Z,101829.67
2019-03-31T18:38:03.221Z,101835.66
2019-03-31T18:43:12.010Z,101849.56
2019-03-31T18:48:26.079Z,101863.95
2019-03-31T18:53:43.877Z,101863.59
2019-03-31T18:59:12.731Z,101869.77
2019-03-31T19:04:31.221Z,101881.21
2019-03-31T19:09:51.348Z,101885.30
2019-03-31T19:15:08.775Z,101901.98
2019-03-31T19:20:22.897Z,101892.45
2019-03-31T19:25:44.422Z,101896.48
2019-03-31T19:30:56.550Z,101896.69
2019-03-31T19:36:13.885Z,101908.39
2019-03-31T19:41:30.337Z,101909.59
2019-03-31T19:46:41.040Z,101916.22
2019-03-31T19:51:53.130Z,101926.88
2019-03-31T19:57:00.647Z,101932.22
2019-03-31T20:02:18.393Z,101938.16
2019-03-31T20:07:28.596Z,101941.62
2019-03-31T20:12:47.730Z,101945.84
2019-03-31T20:17:55.306Z,101950.69
2019-03-31T20:23:19.312Z,101944.80
2019-03-31T20:28:43.425Z,101946.82
2019-03-31T20:34:08.851Z,101950.25
2019-03-31T20:39:31.633Z,101955.92
2019-03-31T20:44:41.706Z,101956.45
2019-03-31T20:49:48.059Z,101964.31
2019-03-31T20:54:53.855Z,101971.98
2019-03-31T20:59:59.763Z,101974.97
2019-03-31T21:05:07.230Z,101983.45
2019-03-31T21:10:13.588Z,101986.13
2019-03-31T21:15:20.367Z,101991.50
2019-03-31T21:20:32.439Z,101993.59
2019-03-31T21:25:40.947Z,102004.00
2019-03-31T21:30:53.951Z,102010.41
2019-03-31T21:36:04.875Z,102012.17
2019-03-31T21:41:14.258Z,102018.03
2019-03-31T21:46:25.039Z,102027.74
2019-03-31T21:51:36.131Z,102030.41
2019-03-31T21:56:43.815Z,102027.41
2019-03-31T22:01:51.800Z,102028.06
2019-03-31T22:06:59.045Z,102036.68
2019-03-31T22:12:06.514Z,102038.78
2019-03-31T22:17:20.762Z,102034.18
2019-03-31T22:22:27.130Z,102027.98
2019-03-31T22:27:35.519Z,102031.70
2019-03-31T22:32:43.224Z,102033.39
2019-03-31T22:37:49.364Z,102041.20
2019-03-31T22:42:55.658Z,102050.69
2019-03-31T22:48:02.561Z,102044.21
2019-03-31T22:53:11.800Z,102049.83
2019-03-31T22:58:18.805Z,102044.95
2019-03-31T23:03:29.423Z,102041.48
2019-03-31T23:08:38.179Z,102043.47
2019-03-31T23:13:56.793Z,102049.65
2019-03-31T23:19:11.623Z,102048.80
2019-03-31T23:24:30.223Z,102045.56
2019-03-31T23:29:42.911Z,102047.31
2019-03-31T23:34:55.653Z,102051.68
2019-03-31T23:40:04.324Z,102052.38
2019-03-31T23:45:11.151Z,102057.05
2019-03-31T23:50:20.054Z,102063.50
2019-03-31T23:55:31.518Z,102059.98
